Wetterdaten: Samstag, 29.10.2011
Datum Zeit Temp. Auen Feucht Auen Luftdruck Regen Richtung Richtung Windben
29.10.2011 00:00 2,0 C 100 % 1098,2 hPa 0,0 mm SW 225 1,1 km/h (1 Bft)
29.10.2011 00:05 2,0 C 100 % 1098,5 hPa 0,0 mm SW 225 1,1 km/h (1 Bft)
29.10.2011 00:10 1,9 C 99 % 1098,5 hPa 0,0 mm N 0 0,0 km/h (0 Bft)
29.10.2011 00:15 1,9 C 99 % 1098,3 hPa 0,0 mm N 0 0,0 km/h (0 Bft)
29.10.2011 00:20 2,0 C 99 % 1098,2 hPa 0,0 mm N 0 0,0 km/h (0 Bft)
29.10.2011 00:25 2,0 C 99 % 1098,4 hPa 0,0 mm N 0 0,0 km/h (0 Bft)
29.10.2011 00:30 1,9 C 99 % 1098,4 hPa 0,0 mm N 0 0,0 km/h (0 Bft)
29.10.2011 00:35 1,8 C 99 % 1098,4 hPa 0,0 mm N 0 0,0 km/h (0 Bft)
29.10.2011 00:40 1,7 C 99 % 1098,3 hPa 0,0 mm N 0 0,0 km/h (0 Bft)
29.10.2011 00:45 1,7 C 99 % 1098,4 hPa 0,0 mm N 0 0,0 km/h (0 Bft)
29.10.2011 00:50 1,6 C 99 % 1098,4 hPa 0,0 mm N 0 0,0 km/h (0 Bft)
29.10.2011 00:55 1,6 C 99 % 1098,5 hPa 0,0 mm N 0 0,0 km/h (0 Bft)
29.10.2011 01:00 1,6 C 99 % 1098,4 hPa 0,0 mm N 0 0,0 km/h (0 Bft)
29.10.2011 01:05 1,6 C 99 % 1098,6 hPa 0,0 mm N 0 0,0 km/h (0 Bft)
29.10.2011 01:10 1,4 C 99 % 1098,7 hPa 0,0 mm N 0 0,0 km/h (0 Bft)
29.10.2011 01:15 1,4 C 99 % 1098,8 hPa 0,0 mm N 0 0,0 km/h (0 Bft)
29.10.2011 01:20 1,5 C 99 % 1098,7 hPa 0,0 mm N 0 0,0 km/h (0 Bft)
29.10.2011 01:25 1,5 C 99 % 1098,7 hPa 0,0 mm N 0 0,0 km/h (0 Bft)
29.10.2011 01:30 1,6 C 99 % 1098,7 hPa 0,0 mm N 0 0,0 km/h (0 Bft)
29.10.2011 01:35 1,6 C 99 % 1098,7 hPa 0,0 mm N 0 0,0 km/h (0 Bft)
29.10.2011 01:40 1,5 C 99 % 1098,8 hPa 0,0 mm N 0 0,0 km/h (0 Bft)
29.10.2011 01:45 1,4 C 99 % 1098,8 hPa 0,0 mm SW 225 1,1 km/h (1 Bft)
29.10.2011 01:50 1,5 C 99 % 1098,6 hPa 0,0 mm SW 225 2,5 km/h (1 Bft)
29.10.2011 01:55 1,7 C 99 % 1098,8 hPa 0,0 mm SW 225 2,5 km/h (1 Bft)
29.10.2011 02:00 1,8 C 99 % 1098,7 hPa 0,0 mm SW 225 5,0 km/h (1 Bft)
29.10.2011 02:05 1,8 C 99 % 1098,9 hPa 0,0 mm SW 225 5,0 km/h (1 Bft)
29.10.2011 02:10 1,8 C 99 % 1098,7 hPa 0,0 mm SW 225 3,6 km/h (1 Bft)
29.10.2011 02:15 1,9 C 99 % 1098,7 hPa 0,0 mm SW 225 3,6 km/h (1 Bft)
29.10.2011 02:20 2,0 C 99 % 1098,7 hPa 0,0 mm N 0 0,0 km/h (0 Bft)
29.10.2011 02:25 2,2 C 99 % 1098,6 hPa 0,0 mm N 0 0,0 km/h (0 Bft)
29.10.2011 02:30 2,2 C 99 % 1098,7 hPa 0,0 mm SW 225 2,5 km/h (1 Bft)
29.10.2011 02:35 2,1 C 99 % 1098,5 hPa 0,0 mm SW 225 2,5 km/h (1 Bft)
29.10.2011 02:40 1,9 C 99 % 1098,7 hPa 0,0 mm SW 225 1,1 km/h (1 Bft)
29.10.2011 02:45 2,0 C 99 % 1098,6 hPa 0,0 mm N 0 0,0 km/h (0 Bft)
29.10.2011 02:50 2,1 C 99 % 1098,4 hPa 0,0 mm N 0 0,0 km/h (0 Bft)
29.10.2011 02:55 2,3 C 99 % 1098,5 hPa 0,0 mm N 0 0,0 km/h (0 Bft)
29.10.2011 03:00 2,5 C 99 % 1098,4 hPa 0,0 mm N 0 0,0 km/h (0 Bft)
29.10.2011 03:05 2,5 C 99 % 1098,2 hPa 0,0 mm N 0 0,0 km/h (0 Bft)
29.10.2011 03:10 2,8 C 99 % 1098,4 hPa 0,0 mm SW 225 3,6 km/h (1 Bft)
29.10.2011 03:15 3,0 C 99 % 1098,4 hPa 0,0 mm SW 225 3,6 km/h (1 Bft)
29.10.2011 03:20 3,0 C 99 % 1098,4 hPa 0,0 mm SW 225 3,6 km/h (1 Bft)
29.10.2011 03:25 3,1 C 99 % 1098,4 hPa 0,0 mm SW 225 2,5 km/h (1 Bft)
29.10.2011 03:30 3,1 C 99 % 1098,4 hPa 0,0 mm SW 225 1,1 km/h (1 Bft)
29.10.2011 03:35 3,2 C 99 % 1098,2 hPa 0,0 mm SW 225 1,1 km/h (1 Bft)
29.10.2011 03:40 3,2 C 99 % 1098,4 hPa 0,0 mm SW 225 1,1 km/h (1 Bft)
29.10.2011 03:45 3,2 C 99 % 1098,2 hPa 0,0 mm SW 225 2,5 km/h (1 Bft)
29.10.2011 03:50 3,3 C 99 % 1098,3 hPa 0,0 mm SW 225 2,5 km/h (1 Bft)
29.10.2011 03:55 3,2 C 99 % 1098,0 hPa 0,0 mm SW 225 1,1 km/h (1 Bft)
29.10.2011 04:00 3,4 C 99 % 1098,0 hPa 0,0 mm SW 225 1,1 km/h (1 Bft)
29.10.2011 04:05 3,4 C 99 % 1098,0 hPa 0,0 mm SW 225 1,1 km/h (1 Bft)
29.10.2011 04:10 3,5 C 99 % 1098,0 hPa 0,0 mm N 0 0,0 km/h (0 Bft)
29.10.2011 04:15 3,5 C 99 % 1098,1 hPa 0,0 mm SW 225 1,1 km/h (1 Bft)
29.10.2011 04:20 3,6 C 99 % 1098,0 hPa 0,0 mm SW 225 1,1 km/h (1 Bft)
29.10.2011 04:25 3,6 C 99 % 1098,2 hPa 0,0 mm SW 225 2,5 km/h (1 Bft)
29.10.2011 04:30 3,7 C 99 % 1098,0 hPa 0,0 mm SW 225 2,5 km/h (1 Bft)
29.10.2011 04:35 3,8 C 99 % 1097,9 hPa 0,0 mm N 0 0,0 km/h (0 Bft)
29.10.2011 04:40 3,9 C 99 % 1097,6 hPa 0,0 mm N 0 0,0 km/h (0 Bft)
29.10.2011 04:45 4,0 C 99 % 1097,7 hPa 0,0 mm N 0 0,0 km/h (0 Bft)
29.10.2011 04:50 4,1 C 99 % 1097,6 hPa 0,0 mm N 0 0,0 km/h (0 Bft)
29.10.2011 04:55 4,1 C 99 % 1097,8 hPa 0,0 mm N 0 0,0 km/h (0 Bft)
29.10.2011 05:00 4,2 C 99 % 1097,8 hPa 0,0 mm N 0 0,0 km/h (0 Bft)
29.10.2011 05:05 4,2 C 99 % 1097,8 hPa 0,0 mm N 0 0,0 km/h (0 Bft)
29.10.2011 05:10 4,5 C 99 % 1097,7 hPa 0,0 mm SW 225 5,0 km/h (1 Bft)
29.10.2011 05:15 4,5 C 99 % 1097,5 hPa 0,0 mm SW 222 5,0 km/h (1 Bft)
29.10.2011 05:20 4,4 C 99 % 1097,8 hPa 0,0 mm S-SW 202 2,5 km/h (1 Bft)
29.10.2011 05:25 4,4 C 99 % 1097,5 hPa 0,0 mm N 0 0,0 km/h (0 Bft)
29.10.2011 05:30 4,4 C 99 % 1097,5 hPa 0,0 mm N 0 0,0 km/h (0 Bft)
29.10.2011 05:35 4,4 C 99 % 1097,5 hPa 0,0 mm N 0 0,0 km/h (0 Bft)
29.10.2011 05:40 4,4 C 99 % 1097,4 hPa 0,0 mm N 0 0,0 km/h (0 Bft)
29.10.2011 05:45 4,4 C 99 % 1097,6 hPa 0,0 mm N 0 0,0 km/h (0 Bft)
29.10.2011 05:50 4,5 C 99 % 1097,3 hPa 0,0 mm N 0 0,0 km/h (0 Bft)
29.10.2011 05:55 4,4 C 99 % 1097,3 hPa 0,0 mm N 0 0,0 km/h (0 Bft)
29.10.2011 06:00 4,4 C 99 % 1097,2 hPa 0,0 mm N 0 0,0 km/h (0 Bft)
29.10.2011 06:05 4,4 C 99 % 1097,4 hPa 0,0 mm N 0 0,0 km/h (0 Bft)
29.10.2011 06:10 4,4 C 99 % 1097,4 hPa 0,0 mm N 0 0,0 km/h (0 Bft)
29.10.2011 06:15 4,3 C 99 % 1097,3 hPa 0,0 mm S-SO 163 6,1 km/h (2 Bft)
29.10.2011 06:20 4,2 C 99 % 1097,2 hPa 0,0 mm S-SO 166 6,1 km/h (2 Bft)
29.10.2011 06:25 4,2 C 99 % 1097,2 hPa 0,0 mm S 170 5,0 km/h (1 Bft)
29.10.2011 06:30 4,2 C 99 % 1097,0 hPa 0,0 mm S-SO 167 5,0 km/h (1 Bft)
29.10.2011 06:35 4,4 C 99 % 1097,1 hPa 0,0 mm S-SO 147 6,1 km/h (2 Bft)
29.10.2011 06:40 4,3 C 99 % 1097,0 hPa 0,0 mm S-SO 160 6,1 km/h (2 Bft)
29.10.2011 06:45 4,4 C 99 % 1096,9 hPa 0,0 mm S 181 5,0 km/h (1 Bft)
29.10.2011 06:50 4,4 C 99 % 1097,1 hPa 0,0 mm S 171 5,0 km/h (1 Bft)
29.10.2011 06:55 4,4 C 99 % 1096,8 hPa 0,0 mm S-SO 156 5,0 km/h (1 Bft)
29.10.2011 07:00 4,4 C 99 % 1096,9 hPa 0,0 mm S-SO 161 2,5 km/h (1 Bft)
29.10.2011 07:05 4,4 C 99 % 1096,8 hPa 0,0 mm S-SO 160 2,5 km/h (1 Bft)
29.10.2011 07:10 4,5 C 99 % 1096,7 hPa 0,0 mm SO 146 3,6 km/h (1 Bft)
29.10.2011 07:15 4,5 C 99 % 1096,8 hPa 0,0 mm S-SO 165 3,6 km/h (1 Bft)
29.10.2011 07:20 4,4 C 99 % 1097,0 hPa 0,0 mm S 176 6,1 km/h (2 Bft)
29.10.2011 07:25 4,4 C 99 % 1097,0 hPa 0,0 mm S 172 6,1 km/h (2 Bft)
29.10.2011 07:30 4,5 C 99 % 1096,8 hPa 0,0 mm S-SO 168 6,1 km/h (2 Bft)
29.10.2011 07:35 4,5 C 99 % 1096,8 hPa 0,0 mm S-SO 157 5,0 km/h (1 Bft)
29.10.2011 07:40 4,4 C 99 % 1097,1 hPa 0,0 mm S-SO 153 5,0 km/h (1 Bft)
29.10.2011 07:45 4,4 C 99 % 1097,1 hPa 0,0 mm S-SO 157 6,1 km/h (2 Bft)
29.10.2011 07:50 4,4 C 99 % 1096,8 hPa 0,0 mm SO 139 6,1 km/h (2 Bft)
29.10.2011 07:55 4,4 C 99 % 1096,9 hPa 0,0 mm SO 134 3,6 km/h (1 Bft)
29.10.2011 08:00 4,4 C 99 % 1096,6 hPa 0,0 mm SO 134 3,6 km/h (1 Bft)
29.10.2011 08:05 4,4 C 99 % 1096,9 hPa 0,0 mm SO 127 2,5 km/h (1 Bft)
29.10.2011 08:10 4,5 C 99 % 1096,8 hPa 0,0 mm SO 132 3,6 km/h (1 Bft)
29.10.2011 08:15 4,6 C 99 % 1096,9 hPa 0,0 mm SO 129 3,6 km/h (1 Bft)
29.10.2011 08:20 4,7 C 99 % 1096,8 hPa 0,0 mm SO 131 6,1 km/h (2 Bft)
29.10.2011 08:25 4,7 C 99 % 1097,0 hPa 0,0 mm SO 125 6,1 km/h (2 Bft)
29.10.2011 08:30 4,8 C 99 % 1097,0 hPa 0,0 mm O-SO 110 6,1 km/h (2 Bft)
29.10.2011 08:35 4,8 C 99 % 1097,3 hPa 0,0 mm O-SO 107 6,1 km/h (2 Bft)
29.10.2011 08:40 4,8 C 99 % 1097,2 hPa 0,0 mm O-SO 122 6,1 km/h (2 Bft)
29.10.2011 08:45 4,8 C 99 % 1097,3 hPa 0,0 mm SO 134 6,1 km/h (2 Bft)
29.10.2011 08:50 4,9 C 99 % 1097,2 hPa 0,0 mm SO 134 5,0 km/h (1 Bft)
29.10.2011 08:55 4,9 C 99 % 1096,9 hPa 0,0 mm SO 140 5,0 km/h (1 Bft)
29.10.2011 09:00 5,0 C 99 % 1096,9 hPa 0,0 mm SO 139 5,0 km/h (1 Bft)
29.10.2011 09:05 5,0 C 99 % 1097,1 hPa 0,0 mm O-SO 102 5,0 km/h (1 Bft)
29.10.2011 09:10 5,1 C 99 % 1097,1 hPa 0,0 mm O 86 5,0 km/h (1 Bft)
29.10.2011 09:15 5,1 C 99 % 1097,2 hPa 0,0 mm O 84 8,6 km/h (2 Bft)
29.10.2011 09:20 5,1 C 99 % 1097,2 hPa 0,0 mm NO 56 8,6 km/h (2 Bft)
29.10.2011 09:25 5,1 C 99 % 1097,1 hPa 0,0 mm NO 43 7,2 km/h (2 Bft)
29.10.2011 09:30 5,2 C 99 % 1096,9 hPa 0,0 mm O-NO 69 8,6 km/h (2 Bft)
29.10.2011 09:35 5,3 C 99 % 1096,7 hPa 0,0 mm O 79 8,6 km/h (2 Bft)
29.10.2011 09:40 5,3 C 99 % 1096,9 hPa 0,0 mm O 82 8,6 km/h (2 Bft)
29.10.2011 09:45 5,3 C 99 % 1096,9 hPa 0,0 mm O 100 7,2 km/h (2 Bft)
29.10.2011 09:50 5,4 C 99 % 1096,9 hPa 0,0 mm O-SO 113 7,2 km/h (2 Bft)
29.10.2011 09:55 5,6 C 99 % 1096,8 hPa 0,0 mm O-SO 118 7,2 km/h (2 Bft)
29.10.2011 10:00 5,6 C 99 % 1096,7 hPa 0,0 mm SO 132 8,6 km/h (2 Bft)
29.10.2011 10:05 5,6 C 99 % 1096,5 hPa 0,0 mm SO 135 8,6 km/h (2 Bft)
29.10.2011 10:10 5,6 C 99 % 1096,3 hPa 0,0 mm SO 131 7,2 km/h (2 Bft)
29.10.2011 10:15 5,7 C 99 % 1096,5 hPa 0,0 mm SO 130 7,2 km/h (2 Bft)
29.10.2011 10:20 5,8 C 99 % 1096,4 hPa 0,0 mm O-SO 117 9,7 km/h (2 Bft)
29.10.2011 10:25 5,7 C 99 % 1096,2 hPa 0,0 mm O-SO 119 12,2 km/h (2 Bft)
29.10.2011 10:30 5,8 C 99 % 1096,3 hPa 0,0 mm O-SO 112 12,2 km/h (2 Bft)
29.10.2011 10:35 5,7 C 99 % 1096,2 hPa 0,0 mm O-SO 102 9,7 km/h (2 Bft)
29.10.2011 10:40 5,7 C 99 % 1096,5 hPa 0,0 mm O-SO 104 9,7 km/h (2 Bft)
29.10.2011 10:45 5,8 C 99 % 1096,6 hPa 0,0 mm O 101 12,2 km/h (2 Bft)
29.10.2011 10:50 6,2 C 99 % 1096,3 hPa 0,0 mm O-SO 110 12,2 km/h (2 Bft)
29.10.2011 10:55 7,0 C 99 % 1096,2 hPa 0,0 mm O-SO 110 12,2 km/h (2 Bft)
29.10.2011 11:00 7,6 C 99 % 1095,9 hPa 0,0 mm O-SO 114 13,3 km/h (3 Bft)
29.10.2011 11:05 7,6 C 99 % 1095,8 hPa 0,0 mm O-SO 107 13,3 km/h (3 Bft)
29.10.2011 11:10 8,4 C 100 % 1095,5 hPa 0,0 mm O 93 9,7 km/h (2 Bft)
29.10.2011 11:15 8,7 C 97 % 1095,3 hPa 0,0 mm O-SO 110 11,2 km/h (2 Bft)
29.10.2011 11:20 8,8 C 94 % 1095,4 hPa 0,0 mm O-SO 110 11,2 km/h (2 Bft)
29.10.2011 11:25 8,9 C 94 % 1095,3 hPa 0,0 mm O 100 13,3 km/h (3 Bft)
29.10.2011 11:30 8,8 C 93 % 1095,4 hPa 0,0 mm O 100 13,3 km/h (3 Bft)
29.10.2011 11:35 8,8 C 93 % 1095,3 hPa 0,0 mm O 90 15,8 km/h (3 Bft)
29.10.2011 11:40 9,0 C 92 % 1095,1 hPa 0,0 mm O 99 15,8 km/h (3 Bft)
29.10.2011 11:45 9,0 C 92 % 1095,2 hPa 0,0 mm O-SO 118 14,8 km/h (3 Bft)
29.10.2011 11:50 8,9 C 91 % 1095,2 hPa 0,0 mm O-SO 108 14,8 km/h (3 Bft)
29.10.2011 11:55 9,0 C 91 % 1095,1 hPa 0,0 mm O-SO 105 14,8 km/h (3 Bft)
29.10.2011 12:00 9,2 C 92 % 1095,2 hPa 0,0 mm O-SO 114 14,8 km/h (3 Bft)
29.10.2011 12:05 9,2 C 92 % 1094,8 hPa 0,0 mm SO 125 14,8 km/h (3 Bft)
29.10.2011 12:10 9,7 C 91 % 1094,9 hPa 0,0 mm O-SO 123 13,3 km/h (3 Bft)
29.10.2011 12:15 9,7 C 90 % 1094,9 hPa 0,0 mm O-SO 116 14,8 km/h (3 Bft)
29.10.2011 12:20 9,5 C 89 % 1094,8 hPa 0,0 mm O-SO 111 15,8 km/h (3 Bft)
29.10.2011 12:25 9,6 C 89 % 1094,7 hPa 0,0 mm O-SO 109 20,9 km/h (4 Bft)
29.10.2011 12:30 9,6 C 89 % 1094,7 hPa 0,0 mm O-SO 117 20,9 km/h (4 Bft)
29.10.2011 12:35 9,6 C 89 % 1094,5 hPa 0,0 mm O-SO 123 20,9 km/h (4 Bft)
29.10.2011 12:40 9,5 C 91 % 1094,6 hPa 0,0 mm O-SO 114 19,4 km/h (3 Bft)
29.10.2011 12:45 9,4 C 90 % 1094,5 hPa 0,0 mm O-SO 102 19,4 km/h (3 Bft)
29.10.2011 12:50 9,5 C 90 % 1094,5 hPa 0,0 mm O-SO 104 18,4 km/h (3 Bft)
29.10.2011 12:55 9,5 C 89 % 1094,4 hPa 0,0 mm O 100 18,4 km/h (3 Bft)
29.10.2011 13:00 9,5 C 90 % 1094,3 hPa 0,0 mm O 95 20,9 km/h (4 Bft)
29.10.2011 13:05 9,5 C 90 % 1094,2 hPa 0,0 mm O-NO 71 20,9 km/h (4 Bft)
29.10.2011 13:10 9,5 C 90 % 1094,2 hPa 0,0 mm NO 55 15,8 km/h (3 Bft)
29.10.2011 13:15 9,4 C 88 % 1094,3 hPa 0,0 mm O 89 17,3 km/h (3 Bft)
29.10.2011 13:20 9,3 C 89 % 1094,3 hPa 0,0 mm O-SO 108 17,3 km/h (3 Bft)
29.10.2011 13:25 9,3 C 91 % 1094,3 hPa 0,0 mm O-SO 104 15,8 km/h (3 Bft)
29.10.2011 13:30 9,3 C 89 % 1094,1 hPa 0,0 mm O 98 18,4 km/h (3 Bft)
29.10.2011 13:35 9,4 C 89 % 1094,1 hPa 0,0 mm O-SO 102 18,4 km/h (3 Bft)
29.10.2011 13:40 9,5 C 88 % 1093,9 hPa 0,0 mm O-SO 106 17,3 km/h (3 Bft)
29.10.2011 13:45 9,5 C 88 % 1094,1 hPa 0,0 mm O 91 17,3 km/h (3 Bft)
29.10.2011 13:50 9,5 C 88 % 1093,9 hPa 0,0 mm O 83 17,3 km/h (3 Bft)
29.10.2011 13:55 9,6 C 88 % 1094,1 hPa 0,0 mm O-NO 71 14,8 km/h (3 Bft)
29.10.2011 14:00 9,7 C 87 % 1094,0 hPa 0,0 mm O-NO 70 13,3 km/h (3 Bft)
29.10.2011 14:05 9,7 C 87 % 1093,9 hPa 0,0 mm O 87 13,3 km/h (3 Bft)
29.10.2011 14:10 9,4 C 87 % 1094,0 hPa 0,0 mm O 87 13,3 km/h (3 Bft)
29.10.2011 14:15 9,4 C 89 % 1094,1 hPa 0,0 mm O 80 17,3 km/h (3 Bft)
29.10.2011 14:20 9,5 C 89 % 1094,1 hPa 0,0 mm O 79 17,3 km/h (3 Bft)
29.10.2011 14:25 9,6 C 89 % 1093,8 hPa 0,0 mm O 96 15,8 km/h (3 Bft)
29.10.2011 14:30 9,6 C 90 % 1093,7 hPa 0,0 mm O-SO 103 13,3 km/h (3 Bft)
29.10.2011 14:35 9,7 C 90 % 1093,8 hPa 0,0 mm O 101 13,3 km/h (3 Bft)
29.10.2011 14:40 9,6 C 90 % 1094,0 hPa 0,0 mm O 98 13,3 km/h (3 Bft)
29.10.2011 14:45 9,6 C 89 % 1093,7 hPa 0,0 mm O 96 13,3 km/h (3 Bft)
29.10.2011 14:50 9,7 C 91 % 1093,7 hPa 0,0 mm O-SO 116 13,3 km/h (3 Bft)
29.10.2011 14:55 9,4 C 90 % 1093,8 hPa 0,0 mm SO 127 13,3 km/h (3 Bft)
29.10.2011 15:00 9,3 C 91 % 1093,8 hPa 0,0 mm O-SO 121 13,3 km/h (3 Bft)
29.10.2011 15:05 9,3 C 91 % 1093,6 hPa 0,0 mm SO 125 12,2 km/h (2 Bft)
29.10.2011 15:10 9,2 C 91 % 1093,6 hPa 0,0 mm SO 125 12,2 km/h (2 Bft)
29.10.2011 15:15 9,2 C 91 % 1093,7 hPa 0,0 mm O 97 12,2 km/h (2 Bft)
29.10.2011 15:20 9,2 C 92 % 1093,7 hPa 0,0 mm O-NO 78 13,3 km/h (3 Bft)
29.10.2011 15:25 9,2 C 91 % 1093,7 hPa 0,0 mm O 83 13,3 km/h (3 Bft)
29.10.2011 15:30 9,1 C 91 % 1093,5 hPa 0,0 mm O-NO 75 13,3 km/h (3 Bft)
29.10.2011 15:35 9,1 C 92 % 1093,7 hPa 0,0 mm O-NO 74 13,3 km/h (3 Bft)
29.10.2011 15:40 9,0 C 92 % 1093,6 hPa 0,0 mm O 82 14,8 km/h (3 Bft)
29.10.2011 15:45 8,9 C 91 % 1093,8 hPa 0,0 mm O-NO 74 14,8 km/h (3 Bft)
29.10.2011 15:50 8,7 C 92 % 1093,9 hPa 0,0 mm O-NO 59 14,8 km/h (3 Bft)
29.10.2011 15:55 8,5 C 93 % 1093,9 hPa 0,0 mm O-NO 64 15,8 km/h (3 Bft)
29.10.2011 16:00 8,4 C 94 % 1093,8 hPa 0,0 mm O-NO 70 15,8 km/h (3 Bft)
29.10.2011 16:05 8,4 C 94 % 1093,8 hPa 0,0 mm O 79 15,8 km/h (3 Bft)
29.10.2011 16:10 8,2 C 95 % 1094,0 hPa 0,0 mm O 92 15,8 km/h (3 Bft)
29.10.2011 16:15 8,2 C 96 % 1093,8 hPa 0,0 mm O-SO 103 15,8 km/h (3 Bft)
29.10.2011 16:20 8,1 C 96 % 1094,0 hPa 0,0 mm O 97 14,8 km/h (3 Bft)
29.10.2011 16:25 8,0 C 97 % 1093,9 hPa 0,0 mm O 90 13,3 km/h (3 Bft)
29.10.2011 16:30 7,9 C 97 % 1093,9 hPa 0,0 mm O 101 15,8 km/h (3 Bft)
29.10.2011 16:35 7,9 C 97 % 1093,9 hPa 0,0 mm O 96 15,8 km/h (3 Bft)
29.10.2011 16:40 7,8 C 97 % 1094,0 hPa 0,0 mm O-SO 108 15,8 km/h (3 Bft)
29.10.2011 16:45 7,7 C 97 % 1094,0 hPa 0,0 mm O-SO 113 14,8 km/h (3 Bft)
29.10.2011 16:50 7,7 C 97 % 1093,9 hPa 0,0 mm O-SO 107 11,2 km/h (2 Bft)
29.10.2011 16:55 7,6 C 97 % 1094,1 hPa 0,0 mm SO 135 11,2 km/h (2 Bft)
29.10.2011 17:00 7,6 C 97 % 1094,1 hPa 0,0 mm SO 141 11,2 km/h (2 Bft)
29.10.2011 17:05 7,6 C 97 % 1094,2 hPa 0,0 mm S-SO 157 11,2 km/h (2 Bft)
29.10.2011 17:10 7,4 C 97 % 1094,3 hPa 0,0 mm S-SO 168 8,6 km/h (2 Bft)
29.10.2011 17:15 7,3 C 97 % 1094,2 hPa 0,0 mm O-SO 110 8,6 km/h (2 Bft)
29.10.2011 17:20 7,1 C 97 % 1094,1 hPa 0,0 mm O-NO 62 8,6 km/h (2 Bft)
29.10.2011 17:25 7,0 C 97 % 1094,4 hPa 0,0 mm O-NO 71 3,6 km/h (1 Bft)
29.10.2011 17:30 6,9 C 97 % 1094,5 hPa 0,0 mm O-SO 110 2,5 km/h (1 Bft)
29.10.2011 17:35 6,8 C 97 % 1094,3 hPa 0,0 mm O-SO 111 1,1 km/h (1 Bft)
29.10.2011 17:40 6,7 C 97 % 1094,4 hPa 0,0 mm O 90 1,1 km/h (1 Bft)
29.10.2011 17:45 6,5 C 97 % 1094,6 hPa 0,0 mm O-SO 122 2,5 km/h (1 Bft)
29.10.2011 17:50 6,3 C 97 % 1094,9 hPa 0,0 mm S-SO 154 2,5 km/h (1 Bft)
29.10.2011 17:55 6,0 C 97 % 1095,1 hPa 0,0 mm S-SO 167 2,5 km/h (1 Bft)
29.10.2011 18:00 5,6 C 96 % 1094,8 hPa 0,0 mm SO 135 2,5 km/h (1 Bft)
29.10.2011 18:05 5,6 C 96 % 1095,1 hPa 0,0 mm SO 135 2,5 km/h (1 Bft)
29.10.2011 18:10 5,4 C 97 % 1095,0 hPa 0,0 mm O-SO 109 2,5 km/h (1 Bft)
29.10.2011 18:15 5,4 C 100 % 1095,0 hPa 0,0 mm NO 34 2,5 km/h (1 Bft)
29.10.2011 18:20 5,3 C 100 % 1095,2 hPa 0,0 mm N-NO 17 2,5 km/h (1 Bft)
29.10.2011 18:25 5,0 C 100 % 1095,2 hPa 0,0 mm S 172 2,5 km/h (1 Bft)
29.10.2011 18:30 5,0 C 100 % 1095,3 hPa 0,0 mm S 181 2,5 km/h (1 Bft)
29.10.2011 18:35 4,9 C 100 % 1095,3 hPa 0,0 mm S 181 2,5 km/h (1 Bft)
29.10.2011 18:40 4,9 C 99 % 1095,2 hPa 0,0 mm S 181 2,5 km/h (1 Bft)
29.10.2011 18:45 4,8 C 99 % 1095,2 hPa 0,0 mm S 181 1,1 km/h (1 Bft)
29.10.2011 18:50 4,7 C 99 % 1095,3 hPa 0,0 mm S 181 1,1 km/h (1 Bft)
29.10.2011 18:55 4,8 C 99 % 1095,4 hPa 0,0 mm N 0 0,0 km/h (0 Bft)
29.10.2011 19:00 5,0 C 99 % 1095,4 hPa 0,0 mm N 1 2,5 km/h (1 Bft)
29.10.2011 19:05 5,0 C 99 % 1095,5 hPa 0,0 mm N 1 2,5 km/h (1 Bft)
29.10.2011 19:10 5,2 C 99 % 1095,3 hPa 0,0 mm N 1 1,1 km/h (1 Bft)
29.10.2011 19:15 5,2 C 99 % 1095,4 hPa 0,0 mm N 1 2,5 km/h (1 Bft)
29.10.2011 19:20 5,2 C 99 % 1095,3 hPa 0,0 mm S 179 2,5 km/h (1 Bft)
29.10.2011 19:25 5,2 C 99 % 1095,4 hPa 0,0 mm N 0 0,0 km/h (0 Bft)
29.10.2011 19:30 5,2 C 99 % 1095,2 hPa 0,0 mm N 0 0,0 km/h (0 Bft)
29.10.2011 19:35 5,2 C 99 % 1095,5 hPa 0,0 mm N 0 0,0 km/h (0 Bft)
29.10.2011 19:40 5,2 C 99 % 1095,3 hPa 0,0 mm N 0 0,0 km/h (0 Bft)
29.10.2011 19:45 5,3 C 99 % 1095,1 hPa 0,0 mm N 0 0,0 km/h (0 Bft)
29.10.2011 19:50 5,4 C 99 % 1095,1 hPa 0,0 mm N 0 0,0 km/h (0 Bft)
29.10.2011 19:55 5,5 C 99 % 1095,3 hPa 0,0 mm N 0 0,0 km/h (0 Bft)
29.10.2011 20:00 5,7 C 99 % 1095,2 hPa 0,0 mm S 181 2,5 km/h (1 Bft)
29.10.2011 20:05 5,7 C 99 % 1095,2 hPa 0,0 mm S 181 2,5 km/h (1 Bft)
29.10.2011 20:10 5,9 C 99 % 1095,3 hPa 0,0 mm S 181 1,1 km/h (1 Bft)
29.10.2011 20:15 6,0 C 99 % 1095,3 hPa 0,0 mm S 181 1,1 km/h (1 Bft)
29.10.2011 20:20 6,2 C 99 % 1094,8 hPa 0,0 mm SO 135 3,6 km/h (1 Bft)
29.10.2011 20:25 6,3 C 99 % 1094,9 hPa 0,0 mm SO 145 5,0 km/h (1 Bft)
29.10.2011 20:30 6,3 C 99 % 1094,9 hPa 0,0 mm S-SO 155 5,0 km/h (1 Bft)
29.10.2011 20:35 6,4 C 99 % 1094,8 hPa 0,0 mm SO 125 3,6 km/h (1 Bft)
29.10.2011 20:40 6,5 C 99 % 1094,7 hPa 0,0 mm O-SO 120 3,6 km/h (1 Bft)
29.10.2011 20:45 6,6 C 99 % 1094,7 hPa 0,0 mm SO 130 5,0 km/h (1 Bft)
29.10.2011 20:50 6,7 C 99 % 1094,6 hPa 0,0 mm SO 142 5,0 km/h (1 Bft)
29.10.2011 20:55 6,7 C 99 % 1094,6 hPa 0,0 mm SO 133 6,1 km/h (2 Bft)
29.10.2011 21:00 6,8 C 99 % 1094,7 hPa 0,0 mm O-SO 121 6,1 km/h (2 Bft)
29.10.2011 21:05 6,8 C 99 % 1094,7 hPa 0,0 mm S-SO 147 5,0 km/h (1 Bft)
29.10.2011 21:10 6,9 C 99 % 1094,8 hPa 0,0 mm S 175 2,5 km/h (1 Bft)
29.10.2011 21:15 6,8 C 99 % 1094,7 hPa 0,0 mm S 173 3,6 km/h (1 Bft)
29.10.2011 21:20 6,9 C 99 % 1094,5 hPa 0,0 mm SO 137 3,6 km/h (1 Bft)
29.10.2011 21:25 6,9 C 99 % 1094,7 hPa 0,0 mm O-SO 102 3,6 km/h (1 Bft)
29.10.2011 21:30 6,9 C 99 % 1094,5 hPa 0,0 mm O-NO 71 3,6 km/h (1 Bft)
29.10.2011 21:35 6,9 C 99 % 1094,6 hPa 0,0 mm O-SO 112 3,6 km/h (1 Bft)
29.10.2011 21:40 6,9 C 99 % 1094,5 hPa 0,0 mm S-SO 163 3,6 km/h (1 Bft)
29.10.2011 21:45 6,9 C 99 % 1094,7 hPa 0,0 mm SO 145 5,0 km/h (1 Bft)
29.10.2011 21:50 6,9 C 99 % 1094,8 hPa 0,0 mm O-SO 111 5,0 km/h (1 Bft)
29.10.2011 21:55 7,0 C 99 % 1094,6 hPa 0,0 mm O 92 3,6 km/h (1 Bft)
29.10.2011 22:00 7,0 C 99 % 1094,7 hPa 0,0 mm O 81 5,0 km/h (1 Bft)
29.10.2011 22:05 7,0 C 99 % 1094,5 hPa 0,0 mm O-SO 106 5,0 km/h (1 Bft)
29.10.2011 22:10 7,0 C 99 % 1094,6 hPa 0,0 mm SO 135 6,1 km/h (2 Bft)
29.10.2011 22:15 7,0 C 99 % 1094,5 hPa 0,0 mm O-SO 122 6,1 km/h (2 Bft)
29.10.2011 22:20 7,0 C 99 % 1094,6 hPa 0,0 mm O-SO 107 6,1 km/h (2 Bft)
29.10.2011 22:25 7,0 C 99 % 1094,7 hPa 0,0 mm SO 137 5,0 km/h (1 Bft)
29.10.2011 22:30 7,0 C 99 % 1094,8 hPa 0,0 mm S-SO 163 2,5 km/h (1 Bft)
29.10.2011 22:35 7,0 C 99 % 1094,8 hPa 0,0 mm O-SO 123 1,1 km/h (1 Bft)
29.10.2011 22:40 7,0 C 99 % 1094,8 hPa 0,0 mm SO 127 2,5 km/h (1 Bft)
29.10.2011 22:45 7,0 C 99 % 1094,8 hPa 0,0 mm SO 125 3,6 km/h (1 Bft)
29.10.2011 22:50 7,0 C 99 % 1094,7 hPa 0,0 mm O 85 3,6 km/h (1 Bft)
29.10.2011 22:55 6,9 C 99 % 1094,7 hPa 0,0 mm NO 41 3,6 km/h (1 Bft)
29.10.2011 23:00 6,9 C 99 % 1094,7 hPa 0,0 mm O-NO 64 3,6 km/h (1 Bft)
29.10.2011 23:05 6,9 C 99 % 1094,7 hPa 0,0 mm O 98 3,6 km/h (1 Bft)
29.10.2011 23:10 6,9 C 99 % 1094,9 hPa 0,0 mm O-NO 76 3,6 km/h (1 Bft)
29.10.2011 23:15 6,9 C 99 % 1094,6 hPa 0,0 mm N-NO 14 7,2 km/h (2 Bft)
29.10.2011 23:20 6,8 C 99 % 1095,0 hPa 0,0 mm N 352 7,2 km/h (2 Bft)
29.10.2011 23:25 6,8 C 99 % 1094,6 hPa 0,0 mm N 1 3,6 km/h (1 Bft)
29.10.2011 23:30 6,8 C 99 % 1094,7 hPa 0,0 mm N-NO 15 5,0 km/h (1 Bft)
29.10.2011 23:35 6,8 C 99 % 1094,6 hPa 0,0 mm O 98 6,1 km/h (2 Bft)
29.10.2011 23:40 6,8 C 99 % 1094,5 hPa 0,0 mm SO 135 8,6 km/h (2 Bft)
29.10.2011 23:45 6,7 C 99 % 1094,6 hPa 0,0 mm SO 145 8,6 km/h (2 Bft)
29.10.2011 23:50 6,7 C 99 % 1094,6 hPa 0,0 mm SO 137 8,6 km/h (2 Bft)
29.10.2011 23:55 6,7 C 99 % 1094,8 hPa 0,0 mm O-SO 122 5,0 km/h (1 Bft)
_ Min-Zeit 01:10 14:00 15:30 - - - 00:10
Minimum _ 1,4 C 87 % 1093,5 hPa - - - 0,0 km/h (0 Bft)
_ Max-Zeit 12:10 00:00 02:05 00:00 - - 12:25
Maximum _ 9,7 C 100 % 1098,9 hPa 0,0 mm - - 20,9 km/h
O-SO (4 Bft)
Durchschnitt _ 5,8 C 97 % 1096,0 hPa #0,0 mm N - 6,5 km/h (2 Bft)